createdAt,value
2018-06-12T00:04:13.482Z,3.50
2018-06-12T00:09:04.382Z,3.67
2018-06-12T00:13:55.289Z,3.27
2018-06-12T00:18:46.228Z,4.00
2018-06-12T00:23:37.124Z,4.00
2018-06-12T00:28:28.084Z,3.23
2018-06-12T00:33:18.977Z,4.17
2018-06-12T00:38:09.917Z,4.00
2018-06-12T00:43:00.825Z,4.30
2018-06-12T00:47:51.721Z,3.40
2018-06-12T00:52:42.607Z,3.63
2018-06-12T00:57:34.240Z,3.70
2018-06-12T01:02:25.885Z,3.90
2018-06-12T01:07:16.785Z,4.60
2018-06-12T01:12:08.491Z,3.43
2018-06-12T01:16:59.409Z,4.37
2018-06-12T01:21:50.306Z,4.00
2018-06-12T01:26:41.199Z,4.40
2018-06-12T01:31:32.151Z,4.17
2018-06-12T01:36:23.043Z,3.90
2018-06-12T01:41:13.938Z,3.90
2018-06-12T01:46:05.566Z,4.20
2018-06-12T01:50:57.268Z,3.83
2018-06-12T01:55:48.166Z,4.50
2018-06-12T02:00:39.124Z,3.60
2018-06-12T02:05:31.553Z,3.70
2018-06-12T02:10:22.445Z,4.20
2018-06-12T02:15:13.610Z,3.73
2018-06-12T02:20:04.528Z,3.77
2018-06-12T02:24:55.565Z,3.80
2018-06-12T02:29:46.560Z,3.87
2018-06-12T02:34:37.465Z,3.20
2018-06-12T02:39:28.396Z,3.60
2018-06-12T02:44:19.284Z,4.00
2018-06-12T02:49:10.167Z,3.80
2018-06-12T02:54:01.052Z,3.50
2018-06-12T02:58:52.022Z,3.30
2018-06-12T03:03:42.882Z,4.00
2018-06-12T03:08:33.812Z,4.03
2018-06-12T03:13:24.725Z,3.80
2018-06-12T03:18:15.630Z,3.43
2018-06-12T03:23:06.531Z,4.47
2018-06-12T03:27:57.445Z,3.90
2018-06-12T03:32:48.340Z,4.20
2018-06-12T03:37:40.008Z,3.80
2018-06-12T03:42:30.930Z,3.87
2018-06-12T03:47:21.881Z,4.20
2018-06-12T03:52:12.780Z,4.50
2018-06-12T03:57:03.670Z,4.47
2018-06-12T04:01:54.578Z,4.10
2018-06-12T04:06:46.232Z,5.20
2018-06-12T04:11:37.112Z,3.80
2018-06-12T04:16:28.020Z,4.30
2018-06-12T04:21:19.731Z,4.60
2018-06-12T04:26:10.679Z,3.80
2018-06-12T04:31:02.320Z,4.50
2018-06-12T04:35:53.204Z,4.10
2018-06-12T04:40:44.083Z,4.37
2018-06-12T04:45:35.050Z,4.00
2018-06-12T04:50:25.966Z,4.00
2018-06-12T04:55:16.893Z,4.27
2018-06-12T05:00:07.798Z,5.37
2018-06-12T05:04:58.728Z,4.70
2018-06-12T05:09:49.622Z,5.00
2018-06-12T05:14:40.557Z,4.50
2018-06-12T05:19:31.475Z,4.10
2018-06-12T05:24:22.375Z,4.10
2018-06-12T05:29:13.277Z,4.03
2018-06-12T05:34:04.228Z,3.70
2018-06-12T05:38:55.134Z,4.10
2018-06-12T05:43:46.037Z,4.00
2018-06-12T05:48:36.930Z,4.67
2018-06-12T05:53:28.570Z,3.30
2018-06-12T05:58:20.211Z,4.00
2018-06-12T06:03:11.103Z,5.30
2018-06-12T06:08:02.814Z,4.03
2018-06-12T06:12:53.700Z,3.87
2018-06-12T06:17:44.597Z,4.40
2018-06-12T06:22:36.336Z,4.67
2018-06-12T06:27:27.205Z,3.73
2018-06-12T06:32:18.114Z,4.07
2018-06-12T06:37:09.026Z,3.70
2018-06-12T06:41:59.911Z,3.20
2018-06-12T06:46:50.889Z,3.37
2018-06-12T06:51:41.785Z,3.70
2018-06-12T06:56:32.696Z,3.10
2018-06-12T07:01:23.641Z,2.57
2018-06-12T07:06:14.549Z,2.70
2018-06-12T07:11:05.447Z,2.37
2018-06-12T07:15:57.227Z,2.43
2018-06-12T07:20:56.141Z,2.13
2018-06-12T07:25:47.789Z,2.20
2018-06-12T07:30:39.437Z,2.50
2018-06-12T07:35:30.341Z,2.13
2018-06-12T07:40:21.980Z,1.97
2018-06-12T07:45:13.690Z,2.10
2018-06-12T07:50:04.602Z,2.20
2018-06-12T07:54:55.577Z,2.03
2018-06-12T07:59:47.222Z,2.03
2018-06-12T08:04:38.112Z,2.70
2018-06-12T08:09:29.749Z,1.97
2018-06-12T08:14:21.393Z,1.80
2018-06-12T08:19:13.033Z,2.40
2018-06-12T08:24:04.669Z,2.60
2018-06-12T08:28:55.609Z,2.60
2018-06-12T08:33:46.545Z,2.87
2018-06-12T08:38:37.576Z,2.70
2018-06-12T08:43:28.473Z,2.77
2018-06-12T08:48:19.372Z,2.63
2018-06-12T08:53:10.317Z,3.20
2018-06-12T08:58:01.213Z,2.90
2018-06-12T09:02:52.113Z,2.90
2018-06-12T09:07:43.754Z,2.70
2018-06-12T09:12:34.678Z,2.73
2018-06-12T09:17:25.581Z,2.83
2018-06-12T09:22:17.221Z,2.57
2018-06-12T09:27:08.857Z,2.50
2018-06-12T09:32:00.493Z,2.37
2018-06-12T09:36:52.123Z,2.63
2018-06-12T09:41:43.968Z,2.60
2018-06-12T09:46:34.866Z,2.50
2018-06-12T09:51:26.522Z,2.77
2018-06-12T09:56:17.420Z,2.10
2018-06-12T10:01:08.358Z,2.47
2018-06-12T10:06:00.018Z,2.40
2018-06-12T10:10:50.925Z,2.27
2018-06-12T10:15:41.894Z,2.30
2018-06-12T10:20:32.812Z,2.60
2018-06-12T10:25:23.811Z,2.10
2018-06-12T10:30:14.713Z,2.40
2018-06-12T10:35:05.604Z,2.53
2018-06-12T10:39:57.270Z,2.40
2018-06-12T10:44:48.197Z,2.20
2018-06-12T10:49:39.219Z,3.10
2018-06-12T10:54:30.126Z,3.10
2018-06-12T10:59:21.030Z,2.47
2018-06-12T11:04:11.925Z,3.10
2018-06-12T11:09:03.556Z,2.60
2018-06-12T11:13:55.256Z,2.90
2018-06-12T11:18:46.164Z,2.40
2018-06-12T11:23:37.062Z,2.60
2018-06-12T11:28:28.008Z,2.50
2018-06-12T11:33:18.896Z,2.60
2018-06-12T11:38:09.784Z,2.60
2018-06-12T11:43:01.646Z,2.67
2018-06-12T11:47:52.607Z,2.77
2018-06-12T11:52:43.501Z,2.33
2018-06-12T11:57:34.395Z,2.60
2018-06-12T12:02:26.038Z,3.23
2018-06-12T12:07:16.950Z,2.43
2018-06-12T12:12:07.853Z,2.83
2018-06-12T12:16:59.514Z,3.07
2018-06-12T12:21:51.141Z,2.27
2018-06-12T12:26:42.042Z,2.60
2018-06-12T12:31:33.690Z,2.47
2018-06-12T12:36:25.334Z,2.47
2018-06-12T12:41:16.292Z,2.40
2018-06-12T12:46:07.184Z,2.80
2018-06-12T12:50:58.074Z,2.33
2018-06-12T12:55:49.778Z,2.60
2018-06-12T13:00:40.679Z,2.10
2018-06-12T13:05:31.581Z,2.87
2018-06-12T13:10:29.629Z,2.70
2018-06-12T13:15:21.265Z,2.97
2018-06-12T13:20:13.003Z,2.80
2018-06-12T13:25:03.885Z,3.00
2018-06-12T13:29:54.771Z,2.90
2018-06-12T13:34:45.731Z,2.60
2018-06-12T13:39:36.654Z,2.43
2018-06-12T13:44:27.801Z,2.97
2018-06-12T13:49:19.501Z,2.40
2018-06-12T13:54:10.508Z,3.23
2018-06-12T13:59:01.421Z,2.80
2018-06-12T14:03:52.365Z,2.60
2018-06-12T14:08:43.289Z,2.50
2018-06-12T14:13:34.344Z,2.73
2018-06-12T14:18:25.234Z,2.70
2018-06-12T14:23:16.145Z,2.50
2018-06-12T14:28:07.081Z,2.60
2018-06-12T14:32:57.972Z,2.50
2018-06-12T14:37:48.868Z,2.87
2018-06-12T14:42:39.808Z,2.27
2018-06-12T14:47:30.713Z,2.00
2018-06-12T14:52:21.661Z,2.30
2018-06-12T14:57:12.560Z,1.93
2018-06-12T15:02:03.465Z,2.43
2018-06-12T15:06:54.417Z,1.77
2018-06-12T15:11:46.810Z,2.20
2018-06-12T15:16:37.717Z,1.93
2018-06-12T15:21:29.413Z,2.33
2018-06-12T15:26:20.321Z,2.43
2018-06-12T15:31:11.224Z,2.03
2018-06-12T15:36:02.179Z,2.07
2018-06-12T15:40:53.190Z,2.13
2018-06-12T15:45:44.105Z,2.10
2018-06-12T15:50:35.340Z,2.00
2018-06-12T15:55:26.273Z,2.10
2018-06-12T16:00:17.917Z,1.70
2018-06-12T16:05:08.942Z,1.93
2018-06-12T16:10:00.637Z,2.00
2018-06-12T16:14:51.532Z,1.70
2018-06-12T16:19:42.429Z,1.67
2018-06-12T16:24:33.330Z,1.83
2018-06-12T16:29:24.974Z,2.30
2018-06-12T16:34:16.613Z,2.13
2018-06-12T16:39:08.273Z,2.30
2018-06-12T16:43:59.172Z,2.50
2018-06-12T16:48:50.800Z,2.03
2018-06-12T16:53:42.435Z,2.30
2018-06-12T16:58:34.140Z,1.67
2018-06-12T17:03:25.041Z,1.90
2018-06-12T17:08:15.940Z,2.30
2018-06-12T17:13:06.882Z,2.73
2018-06-12T17:17:57.765Z,2.07
2018-06-12T17:22:48.740Z,2.37
2018-06-12T17:27:39.657Z,2.53
2018-06-12T17:32:30.559Z,3.10
2018-06-12T17:37:21.470Z,2.83
2018-06-12T17:42:12.412Z,2.53
2018-06-12T17:47:03.293Z,2.03
2018-06-12T17:51:54.196Z,2.47
2018-06-12T17:56:45.106Z,2.50
2018-06-12T18:01:36.010Z,2.90
2018-06-12T18:06:27.649Z,2.67
2018-06-12T18:11:19.297Z,2.63
2018-06-12T18:16:10.950Z,2.83
2018-06-12T18:21:01.890Z,3.17
2018-06-12T18:25:52.797Z,2.63
2018-06-12T18:30:43.705Z,3.00
2018-06-12T18:35:34.645Z,3.10
2018-06-12T18:40:25.552Z,3.40
2018-06-12T18:45:16.470Z,3.47
2018-06-12T18:50:07.373Z,3.10
2018-06-12T18:54:58.327Z,3.47
2018-06-12T18:59:49.228Z,3.60
2018-06-12T19:04:40.125Z,2.80
2018-06-12T19:09:31.033Z,3.00
2018-06-12T19:14:22.746Z,3.50
2018-06-12T19:19:13.653Z,4.00
2018-06-12T19:24:04.553Z,3.80
2018-06-12T19:28:55.454Z,3.50
2018-06-12T19:33:46.366Z,3.33
2018-06-12T19:38:37.390Z,3.73
2018-06-12T19:43:28.355Z,3.27
2018-06-12T19:48:19.232Z,3.97
2018-06-12T19:53:10.128Z,4.00
2018-06-12T19:58:01.309Z,4.83
2018-06-12T20:02:52.239Z,4.10
2018-06-12T20:07:43.141Z,3.27
2018-06-12T20:12:34.082Z,2.90
2018-06-12T20:17:24.993Z,3.40
2018-06-12T20:22:15.901Z,3.20
2018-06-12T20:27:06.815Z,3.10
2018-06-12T20:31:57.720Z,3.90
2018-06-12T20:36:48.643Z,3.37
2018-06-12T20:41:39.604Z,3.40
2018-06-12T20:46:30.534Z,3.13
2018-06-12T20:51:22.189Z,3.03
2018-06-12T20:56:13.138Z,3.80
2018-06-12T21:01:04.757Z,4.50
2018-06-12T21:05:55.660Z,4.10
2018-06-12T21:10:46.566Z,3.57
2018-06-12T21:15:37.473Z,3.67
2018-06-12T21:20:29.116Z,3.40
2018-06-12T21:25:20.757Z,3.80
2018-06-12T21:30:11.673Z,3.30
2018-06-12T21:35:02.692Z,3.57
2018-06-12T21:39:54.417Z,3.97
2018-06-12T21:44:46.068Z,3.97
2018-06-12T21:49:36.957Z,3.90
2018-06-12T21:54:27.865Z,3.57
2018-06-12T21:59:18.769Z,3.30
2018-06-12T22:04:09.822Z,3.60
2018-06-12T22:09:00.781Z,3.90
2018-06-12T22:13:51.732Z,3.70
2018-06-12T22:18:42.638Z,3.83
2018-06-12T22:23:33.614Z,3.87
2018-06-12T22:28:24.592Z,3.17
2018-06-12T22:33:15.638Z,3.90
2018-06-12T22:38:07.439Z,3.40
2018-06-12T22:42:58.416Z,3.20
2018-06-12T22:47:50.153Z,3.17
2018-06-12T22:52:41.889Z,3.37
2018-06-12T22:57:33.629Z,3.53
2018-06-12T23:02:24.779Z,3.53
2018-06-12T23:07:15.784Z,3.30
2018-06-12T23:12:13.815Z,3.33
2018-06-12T23:17:04.844Z,2.97
2018-06-12T23:21:55.725Z,3.03
2018-06-12T23:26:46.669Z,2.80
2018-06-12T23:31:37.613Z,3.07
2018-06-12T23:36:30.025Z,3.40
2018-06-12T23:41:21.065Z,3.37
2018-06-12T23:46:11.997Z,2.93
2018-06-12T23:51:02.924Z,3.53
2018-06-12T23:55:53.871Z,2.80
